Akrotiri, Cyprus
Current Conditions -  °F | °C
As of 5:50 PM on Monday 22 Dec 2014 (Local Time) from LCRA Reporting Station
Scattered Clouds Scattered Clouds  
Wind Chill: 59°   Ceiling: Unl
Heat Index: 59°   Visibility: 6mi
Dew Point: 54°   Wind: 8mph
Humidity: 82%   Direction: 60°ENE
Pressure: 29.97"   Gusts: NA
Location:  34.6°N, 32.96°E
Report Text: LCRA 221450Z 06007KT 9999 SCT028 15/12 Q1015 NOSIG
Loading
Personal Weather Stations






























Interactive Weather Map New forecast layout! Learn more

10-Day Weather Forecast

Advertisements
Track Severe Weather on mobile